sensor_id;sensor_type;location;lat;lon;timestamp;P1;durP1;ratioP1;P2;durP2;ratioP2
55037;SDS011;40937;53.594;10.034;2022-12-29T00:01:23;4.05;;;2.42;;
55037;SDS011;40937;53.594;10.034;2022-12-29T00:03:49;3.45;;;2.63;;
55037;SDS011;40937;53.594;10.034;2022-12-29T00:06:16;3.33;;;2.65;;
55037;SDS011;40937;53.594;10.034;2022-12-29T00:08:44;3.95;;;2.63;;
55037;SDS011;40937;53.594;10.034;2022-12-29T00:11:13;2.78;;;2.58;;
55037;SDS011;40937;53.594;10.034;2022-12-29T00:13:41;2.85;;;2.60;;
55037;SDS011;40937;53.594;10.034;2022-12-29T00:16:26;2.35;;;2.25;;
55037;SDS011;40937;53.594;10.034;2022-12-29T00:18:53;2.15;;;2.00;;
55037;SDS011;40937;53.594;10.034;2022-12-29T00:21:20;3.50;;;2.75;;
55037;SDS011;40937;53.594;10.034;2022-12-29T00:24:08;2.88;;;2.60;;
55037;SDS011;40937;53.594;10.034;2022-12-29T00:26:55;2.60;;;2.40;;
55037;SDS011;40937;53.594;10.034;2022-12-29T00:29:42;2.92;;;2.50;;
55037;SDS011;40937;53.594;10.034;2022-12-29T00:32:26;3.45;;;3.00;;
55037;SDS011;40937;53.594;10.034;2022-12-29T00:35:12;2.92;;;2.70;;
55037;SDS011;40937;53.594;10.034;2022-12-29T00:37:40;3.20;;;3.00;;
55037;SDS011;40937;53.594;10.034;2022-12-29T00:40:27;2.72;;;2.53;;
55037;SDS011;40937;53.594;10.034;2022-12-29T00:43:12;2.78;;;2.60;;
55037;SDS011;40937;53.594;10.034;2022-12-29T00:45:57;3.25;;;2.58;;
55037;SDS011;40937;53.594;10.034;2022-12-29T00:48:23;2.65;;;2.42;;
55037;SDS011;40937;53.594;10.034;2022-12-29T00:51:04;3.38;;;2.60;;
55037;SDS011;40937;53.594;10.034;2022-12-29T00:53:31;4.32;;;2.60;;
55037;SDS011;40937;53.594;10.034;2022-12-29T00:55:59;2.90;;;2.70;;
55037;SDS011;40937;53.594;10.034;2022-12-29T00:58:26;4.90;;;3.97;;
55037;SDS011;40937;53.594;10.034;2022-12-29T01:01:00;3.22;;;3.00;;
55037;SDS011;40937;53.594;10.034;2022-12-29T01:03:27;3.88;;;2.58;;
55037;SDS011;40937;53.594;10.034;2022-12-29T01:05:54;3.72;;;2.95;;
55037;SDS011;40937;53.594;10.034;2022-12-29T01:08:21;2.92;;;2.72;;
55037;SDS011;40937;53.594;10.034;2022-12-29T01:10:57;2.58;;;2.38;;
55037;SDS011;40937;53.594;10.034;2022-12-29T01:13:24;3.63;;;2.70;;
55037;SDS011;40937;53.594;10.034;2022-12-29T01:15:51;2.78;;;2.53;;
55037;SDS011;40937;53.594;10.034;2022-12-29T01:18:17;3.47;;;2.75;;
55037;SDS011;40937;53.594;10.034;2022-12-29T01:20:44;4.45;;;2.70;;
55037;SDS011;40937;53.594;10.034;2022-12-29T01:23:11;5.05;;;2.83;;
55037;SDS011;40937;53.594;10.034;2022-12-29T01:25:37;2.83;;;2.42;;
55037;SDS011;40937;53.594;10.034;2022-12-29T01:28:04;3.75;;;3.45;;
55037;SDS011;40937;53.594;10.034;2022-12-29T01:30:33;3.47;;;3.05;;
55037;SDS011;40937;53.594;10.034;2022-12-29T01:33:00;2.83;;;2.63;;
55037;SDS011;40937;53.594;10.034;2022-12-29T01:35:26;3.13;;;2.92;;
55037;SDS011;40937;53.594;10.034;2022-12-29T01:37:53;3.15;;;2.83;;
55037;SDS011;40937;53.594;10.034;2022-12-29T01:40:20;6.45;;;3.22;;
55037;SDS011;40937;53.594;10.034;2022-12-29T01:42:46;4.32;;;3.40;;
55037;SDS011;40937;53.594;10.034;2022-12-29T01:45:13;3.13;;;2.92;;
55037;SDS011;40937;53.594;10.034;2022-12-29T01:47:43;3.58;;;3.20;;
55037;SDS011;40937;53.594;10.034;2022-12-29T01:50:12;10.25;;;3.83;;
55037;SDS011;40937;53.594;10.034;2022-12-29T01:52:42;4.75;;;3.47;;
55037;SDS011;40937;53.594;10.034;2022-12-29T01:55:11;4.22;;;3.92;;
55037;SDS011;40937;53.594;10.034;2022-12-29T01:57:39;3.45;;;3.25;;
55037;SDS011;40937;53.594;10.034;2022-12-29T02:00:08;3.35;;;3.15;;
55037;SDS011;40937;53.594;10.034;2022-12-29T02:02:39;3.45;;;3.25;;
55037;SDS011;40937;53.594;10.034;2022-12-29T02:05:09;3.72;;;3.45;;
55037;SDS011;40937;53.594;10.034;2022-12-29T02:07:37;3.92;;;3.63;;
55037;SDS011;40937;53.594;10.034;2022-12-29T02:10:04;4.00;;;3.72;;
55037;SDS011;40937;53.594;10.034;2022-12-29T02:12:32;3.95;;;3.55;;
55037;SDS011;40937;53.594;10.034;2022-12-29T02:14:59;3.78;;;3.50;;
55037;SDS011;40937;53.594;10.034;2022-12-29T02:17:30;5.70;;;3.65;;
55037;SDS011;40937;53.594;10.034;2022-12-29T02:29:05;4.75;;;4.05;;
55037;SDS011;40937;53.594;10.034;2022-12-29T02:31:43;4.28;;;3.85;;
55037;SDS011;40937;53.594;10.034;2022-12-29T02:34:16;7.30;;;3.97;;
55037;SDS011;40937;53.594;10.034;2022-12-29T02:36:50;4.45;;;4.03;;
55037;SDS011;40937;53.594;10.034;2022-12-29T02:39:23;8.10;;;4.25;;
55037;SDS011;40937;53.594;10.034;2022-12-29T02:41:56;6.28;;;4.30;;
55037;SDS011;40937;53.594;10.034;2022-12-29T02:44:25;4.30;;;4.00;;
55037;SDS011;40937;53.594;10.034;2022-12-29T02:46:56;4.35;;;3.95;;
55037;SDS011;40937;53.594;10.034;2022-12-29T02:49:28;4.60;;;3.83;;
55037;SDS011;40937;53.594;10.034;2022-12-29T02:52:00;4.05;;;3.75;;
55037;SDS011;40937;53.594;10.034;2022-12-29T02:54:27;4.18;;;3.88;;
55037;SDS011;40937;53.594;10.034;2022-12-29T02:57:08;3.50;;;3.30;;
55037;SDS011;40937;53.594;10.034;2022-12-29T02:59:37;4.28;;;3.80;;
55037;SDS011;40937;53.594;10.034;2022-12-29T03:05:04;3.33;;;3.13;;
55037;SDS011;40937;53.594;10.034;2022-12-29T03:07:52;3.97;;;3.78;;
55037;SDS011;40937;53.594;10.034;2022-12-29T03:10:28;3.95;;;3.65;;
55037;SDS011;40937;53.594;10.034;2022-12-29T03:13:02;3.83;;;3.53;;
55037;SDS011;40937;53.594;10.034;2022-12-29T03:15:50;3.88;;;3.58;;
55037;SDS011;40937;53.594;10.034;2022-12-29T03:18:32;4.05;;;3.75;;
55037;SDS011;40937;53.594;10.034;2022-12-29T03:21:04;5.95;;;3.55;;
55037;SDS011;40937;53.594;10.034;2022-12-29T03:23:33;4.35;;;3.30;;
55037;SDS011;40937;53.594;10.034;2022-12-29T03:26:01;4.00;;;3.70;;
55037;SDS011;40937;53.594;10.034;2022-12-29T03:28:32;3.15;;;2.85;;
55037;SDS011;40937;53.594;10.034;2022-12-29T03:31:02;3.80;;;3.40;;
55037;SDS011;40937;53.594;10.034;2022-12-29T03:33:31;2.90;;;2.70;;
55037;SDS011;40937;53.594;10.034;2022-12-29T03:36:02;5.38;;;3.15;;
55037;SDS011;40937;53.594;10.034;2022-12-29T03:38:33;3.15;;;2.67;;
55037;SDS011;40937;53.594;10.034;2022-12-29T03:41:03;2.80;;;2.70;;
55037;SDS011;40937;53.594;10.034;2022-12-29T03:43:32;4.00;;;3.00;;
55037;SDS011;40937;53.594;10.034;2022-12-29T03:46:00;2.85;;;2.65;;
55037;SDS011;40937;53.594;10.034;2022-12-29T03:48:27;2.55;;;2.35;;
55037;SDS011;40937;53.594;10.034;2022-12-29T03:50:56;2.97;;;2.67;;
55037;SDS011;40937;53.594;10.034;2022-12-29T03:53:23;2.75;;;2.40;;
55037;SDS011;40937;53.594;10.034;2022-12-29T03:55:49;2.70;;;2.50;;
55037;SDS011;40937;53.594;10.034;2022-12-29T03:58:16;5.30;;;2.85;;
55037;SDS011;40937;53.594;10.034;2022-12-29T04:01:03;2.58;;;2.47;;
55037;SDS011;40937;53.594;10.034;2022-12-29T04:03:33;3.17;;;2.60;;
55037;SDS011;40937;53.594;10.034;2022-12-29T04:06:01;3.08;;;2.50;;
55037;SDS011;40937;53.594;10.034;2022-12-29T04:08:35;2.35;;;2.20;;
55037;SDS011;40937;53.594;10.034;2022-12-29T04:11:02;4.25;;;3.00;;
55037;SDS011;40937;53.594;10.034;2022-12-29T04:13:30;2.38;;;2.20;;
55037;SDS011;40937;53.594;10.034;2022-12-29T04:15:57;2.60;;;2.50;;
55037;SDS011;40937;53.594;10.034;2022-12-29T04:18:23;2.45;;;2.25;;
55037;SDS011;40937;53.594;10.034;2022-12-29T04:20:51;2.35;;;2.10;;
55037;SDS011;40937;53.594;10.034;2022-12-29T04:23:30;2.58;;;2.38;;
55037;SDS011;40937;53.594;10.034;2022-12-29T04:25:58;3.10;;;2.90;;
55037;SDS011;40937;53.594;10.034;2022-12-29T04:28:27;2.65;;;2.40;;
55037;SDS011;40937;53.594;10.034;2022-12-29T04:31:14;2.97;;;2.22;;
55037;SDS011;40937;53.594;10.034;2022-12-29T04:33:43;5.05;;;2.35;;
55037;SDS011;40937;53.594;10.034;2022-12-29T04:36:09;3.08;;;2.53;;
55037;SDS011;40937;53.594;10.034;2022-12-29T04:38:38;2.60;;;2.40;;
55037;SDS011;40937;53.594;10.034;2022-12-29T04:41:05;2.70;;;2.50;;
55037;SDS011;40937;53.594;10.034;2022-12-29T04:43:34;5.25;;;2.83;;
55037;SDS011;40937;53.594;10.034;2022-12-29T04:46:21;2.50;;;2.30;;
55037;SDS011;40937;53.594;10.034;2022-12-29T04:48:53;2.95;;;2.67;;
55037;SDS011;40937;53.594;10.034;2022-12-29T04:51:27;4.07;;;2.88;;
55037;SDS011;40937;53.594;10.034;2022-12-29T04:53:55;4.55;;;2.33;;
55037;SDS011;40937;53.594;10.034;2022-12-29T04:56:22;2.85;;;1.90;;
55037;SDS011;40937;53.594;10.034;2022-12-29T04:58:50;3.72;;;2.38;;
55037;SDS011;40937;53.594;10.034;2022-12-29T05:01:16;2.55;;;2.25;;
55037;SDS011;40937;53.594;10.034;2022-12-29T05:03:43;2.63;;;2.42;;
55037;SDS011;40937;53.594;10.034;2022-12-29T05:06:10;1.98;;;1.88;;
55037;SDS011;40937;53.594;10.034;2022-12-29T05:08:37;2.70;;;2.50;;
55037;SDS011;40937;53.594;10.034;2022-12-29T05:11:05;2.70;;;2.50;;
55037;SDS011;40937;53.594;10.034;2022-12-29T05:13:32;2.15;;;2.03;;
55037;SDS011;40937;53.594;10.034;2022-12-29T05:15:59;3.95;;;2.33;;
55037;SDS011;40937;53.594;10.034;2022-12-29T05:18:26;2.78;;;2.03;;
55037;SDS011;40937;53.594;10.034;2022-12-29T05:20:53;2.38;;;2.03;;
55037;SDS011;40937;53.594;10.034;2022-12-29T05:23:22;4.22;;;2.05;;
55037;SDS011;40937;53.594;10.034;2022-12-29T05:25:54;2.13;;;2.00;;
55037;SDS011;40937;53.594;10.034;2022-12-29T05:28:42;1.65;;;1.58;;
55037;SDS011;40937;53.594;10.034;2022-12-29T05:31:16;2.65;;;1.60;;
55037;SDS011;40937;53.594;10.034;2022-12-29T05:33:43;1.70;;;1.60;;
55037;SDS011;40937;53.594;10.034;2022-12-29T05:36:10;3.85;;;1.77;;
55037;SDS011;40937;53.594;10.034;2022-12-29T05:38:41;1.52;;;1.40;;
55037;SDS011;40937;53.594;10.034;2022-12-29T05:41:09;2.78;;;1.50;;
55037;SDS011;40937;53.594;10.034;2022-12-29T05:43:56;2.35;;;1.75;;
55037;SDS011;40937;53.594;10.034;2022-12-29T05:46:26;2.80;;;1.80;;
55037;SDS011;40937;53.594;10.034;2022-12-29T05:49:16;1.50;;;1.40;;
55037;SDS011;40937;53.594;10.034;2022-12-29T05:51:56;3.85;;;1.85;;
55037;SDS011;40937;53.594;10.034;2022-12-29T05:54:23;1.95;;;1.63;;
55037;SDS011;40937;53.594;10.034;2022-12-29T05:56:50;1.95;;;1.48;;
55037;SDS011;40937;53.594;10.034;2022-12-29T05:59:18;1.80;;;1.40;;
55037;SDS011;40937;53.594;10.034;2022-12-29T06:01:46;1.73;;;1.30;;
55037;SDS011;40937;53.594;10.034;2022-12-29T06:04:13;2.08;;;1.40;;
55037;SDS011;40937;53.594;10.034;2022-12-29T06:06:40;1.58;;;1.48;;
55037;SDS011;40937;53.594;10.034;2022-12-29T06:11:39;1.92;;;1.27;;
55037;SDS011;40937;53.594;10.034;2022-12-29T06:14:07;1.15;;;1.00;;
55037;SDS011;40937;53.594;10.034;2022-12-29T06:16:35;1.40;;;1.30;;
55037;SDS011;40937;53.594;10.034;2022-12-29T06:19:05;2.20;;;1.30;;
55037;SDS011;40937;53.594;10.034;2022-12-29T06:21:32;2.78;;;1.27;;
55037;SDS011;40937;53.594;10.034;2022-12-29T06:24:00;1.40;;;1.10;;
55037;SDS011;40937;53.594;10.034;2022-12-29T06:26:27;1.40;;;1.33;;
55037;SDS011;40937;53.594;10.034;2022-12-29T06:28:53;2.22;;;1.48;;
55037;SDS011;40937;53.594;10.034;2022-12-29T06:31:21;0.90;;;0.90;;
55037;SDS011;40937;53.594;10.034;2022-12-29T06:33:49;1.70;;;1.27;;
55037;SDS011;40937;53.594;10.034;2022-12-29T06:36:16;1.10;;;0.98;;
55037;SDS011;40937;53.594;10.034;2022-12-29T06:38:43;3.28;;;1.08;;
55037;SDS011;40937;53.594;10.034;2022-12-29T06:41:09;1.35;;;1.25;;
55037;SDS011;40937;53.594;10.034;2022-12-29T06:43:36;4.13;;;1.30;;
55037;SDS011;40937;53.594;10.034;2022-12-29T06:46:23;1.95;;;1.20;;
55037;SDS011;40937;53.594;10.034;2022-12-29T06:48:51;2.08;;;1.15;;
55037;SDS011;40937;53.594;10.034;2022-12-29T06:51:17;2.53;;;1.20;;
55037;SDS011;40937;53.594;10.034;2022-12-29T06:53:44;4.20;;;1.20;;
55037;SDS011;40937;53.594;10.034;2022-12-29T06:56:11;1.27;;;1.20;;
55037;SDS011;40937;53.594;10.034;2022-12-29T06:58:37;3.25;;;1.23;;
55037;SDS011;40937;53.594;10.034;2022-12-29T07:01:04;1.10;;;1.00;;
55037;SDS011;40937;53.594;10.034;2022-12-29T07:03:31;1.88;;;1.25;;
55037;SDS011;40937;53.594;10.034;2022-12-29T07:05:59;1.65;;;1.05;;
55037;SDS011;40937;53.594;10.034;2022-12-29T07:08:25;3.10;;;1.08;;
55037;SDS011;40937;53.594;10.034;2022-12-29T07:10:52;1.10;;;1.00;;
55037;SDS011;40937;53.594;10.034;2022-12-29T07:13:19;1.23;;;1.10;;
55037;SDS011;40937;53.594;10.034;2022-12-29T07:15:45;2.20;;;1.10;;
55037;SDS011;40937;53.594;10.034;2022-12-29T07:18:12;1.23;;;1.10;;
55037;SDS011;40937;53.594;10.034;2022-12-29T07:20:39;4.25;;;1.05;;
55037;SDS011;40937;53.594;10.034;2022-12-29T07:23:07;2.70;;;1.33;;
55037;SDS011;40937;53.594;10.034;2022-12-29T07:25:33;5.00;;;1.20;;
55037;SDS011;40937;53.594;10.034;2022-12-29T07:28:01;1.40;;;1.20;;
55037;SDS011;40937;53.594;10.034;2022-12-29T07:30:27;2.72;;;1.15;;
55037;SDS011;40937;53.594;10.034;2022-12-29T07:32:54;1.27;;;1.13;;
55037;SDS011;40937;53.594;10.034;2022-12-29T07:35:21;2.50;;;0.93;;
55037;SDS011;40937;53.594;10.034;2022-12-29T07:37:47;1.52;;;1.15;;
55037;SDS011;40937;53.594;10.034;2022-12-29T07:40:16;1.48;;;1.15;;
55037;SDS011;40937;53.594;10.034;2022-12-29T07:42:42;1.95;;;1.30;;
55037;SDS011;40937;53.594;10.034;2022-12-29T07:45:09;1.83;;;1.45;;
55037;SDS011;40937;53.594;10.034;2022-12-29T07:48:02;2.10;;;1.23;;
55037;SDS011;40937;53.594;10.034;2022-12-29T07:50:28;1.30;;;1.20;;
55037;SDS011;40937;53.594;10.034;2022-12-29T07:52:55;1.65;;;1.38;;
55037;SDS011;40937;53.594;10.034;2022-12-29T07:55:23;1.73;;;1.58;;
55037;SDS011;40937;53.594;10.034;2022-12-29T07:57:52;5.70;;;1.35;;
55037;SDS011;40937;53.594;10.034;2022-12-29T08:00:19;1.92;;;1.27;;
55037;SDS011;40937;53.594;10.034;2022-12-29T08:02:45;3.28;;;1.55;;
55037;SDS011;40937;53.594;10.034;2022-12-29T08:05:12;2.00;;;1.40;;
55037;SDS011;40937;53.594;10.034;2022-12-29T08:07:39;2.00;;;1.40;;
55037;SDS011;40937;53.594;10.034;2022-12-29T08:10:06;1.20;;;1.10;;
55037;SDS011;40937;53.594;10.034;2022-12-29T08:12:34;2.80;;;1.42;;
55037;SDS011;40937;53.594;10.034;2022-12-29T08:15:01;1.50;;;1.38;;
55037;SDS011;40937;53.594;10.034;2022-12-29T08:17:28;1.65;;;1.20;;
55037;SDS011;40937;53.594;10.034;2022-12-29T08:19:55;0.82;;;0.73;;
55037;SDS011;40937;53.594;10.034;2022-12-29T08:22:22;3.25;;;1.10;;
55037;SDS011;40937;53.594;10.034;2022-12-29T08:24:49;1.70;;;0.85;;
55037;SDS011;40937;53.594;10.034;2022-12-29T08:27:16;1.05;;;1.00;;
55037;SDS011;40937;53.594;10.034;2022-12-29T08:29:44;1.48;;;1.38;;
55037;SDS011;40937;53.594;10.034;2022-12-29T08:32:11;1.40;;;1.00;;
55037;SDS011;40937;53.594;10.034;2022-12-29T08:34:38;2.15;;;1.20;;
55037;SDS011;40937;53.594;10.034;2022-12-29T08:37:04;2.53;;;1.23;;
55037;SDS011;40937;53.594;10.034;2022-12-29T08:39:31;2.30;;;1.17;;
55037;SDS011;40937;53.594;10.034;2022-12-29T08:41:58;1.80;;;1.15;;
55037;SDS011;40937;53.594;10.034;2022-12-29T08:44:25;6.80;;;1.45;;
55037;SDS011;40937;53.594;10.034;2022-12-29T08:46:53;3.13;;;1.30;;
55037;SDS011;40937;53.594;10.034;2022-12-29T08:49:20;4.50;;;1.63;;
55037;SDS011;40937;53.594;10.034;2022-12-29T08:51:47;3.25;;;1.50;;
55037;SDS011;40937;53.594;10.034;2022-12-29T08:54:13;3.47;;;1.13;;
55037;SDS011;40937;53.594;10.034;2022-12-29T08:56:40;2.22;;;1.27;;
55037;SDS011;40937;53.594;10.034;2022-12-29T08:59:07;2.15;;;1.30;;
55037;SDS011;40937;53.594;10.034;2022-12-29T09:01:34;3.17;;;1.50;;
55037;SDS011;40937;53.594;10.034;2022-12-29T09:04:06;3.08;;;1.40;;
55037;SDS011;40937;53.594;10.034;2022-12-29T09:06:34;2.33;;;1.27;;
55037;SDS011;40937;53.594;10.034;2022-12-29T09:09:01;3.28;;;1.27;;
55037;SDS011;40937;53.594;10.034;2022-12-29T09:11:27;2.50;;;1.33;;
55037;SDS011;40937;53.594;10.034;2022-12-29T09:13:54;3.10;;;1.15;;
55037;SDS011;40937;53.594;10.034;2022-12-29T09:16:21;1.80;;;1.50;;
55037;SDS011;40937;53.594;10.034;2022-12-29T09:18:50;2.88;;;1.10;;
55037;SDS011;40937;53.594;10.034;2022-12-29T09:21:18;3.28;;;1.35;;
55037;SDS011;40937;53.594;10.034;2022-12-29T09:23:45;2.88;;;1.35;;
55037;SDS011;40937;53.594;10.034;2022-12-29T09:26:11;3.08;;;1.40;;
55037;SDS011;40937;53.594;10.034;2022-12-29T09:28:38;1.95;;;1.30;;
55037;SDS011;40937;53.594;10.034;2022-12-29T09:31:05;2.60;;;1.20;;
55037;SDS011;40937;53.594;10.034;2022-12-29T09:33:32;2.63;;;1.17;;
55037;SDS011;40937;53.594;10.034;2022-12-29T09:35:59;7.20;;;1.35;;
55037;SDS011;40937;53.594;10.034;2022-12-29T09:38:27;1.83;;;1.30;;
55037;SDS011;40937;53.594;10.034;2022-12-29T09:40:56;5.10;;;1.73;;
55037;SDS011;40937;53.594;10.034;2022-12-29T09:43:27;5.63;;;1.40;;
55037;SDS011;40937;53.594;10.034;2022-12-29T09:46:06;4.25;;;1.60;;
55037;SDS011;40937;53.594;10.034;2022-12-29T09:48:41;4.97;;;1.65;;
55037;SDS011;40937;53.594;10.034;2022-12-29T09:51:11;5.28;;;1.60;;
55037;SDS011;40937;53.594;10.034;2022-12-29T09:53:42;4.93;;;1.50;;
55037;SDS011;40937;53.594;10.034;2022-12-29T09:56:11;5.28;;;1.60;;
55037;SDS011;40937;53.594;10.034;2022-12-29T09:58:41;5.65;;;1.60;;
55037;SDS011;40937;53.594;10.034;2022-12-29T10:01:14;4.68;;;1.58;;
55037;SDS011;40937;53.594;10.034;2022-12-29T10:03:48;4.20;;;1.52;;
55037;SDS011;40937;53.594;10.034;2022-12-29T10:06:17;3.58;;;1.48;;
55037;SDS011;40937;53.594;10.034;2022-12-29T10:08:49;6.35;;;1.58;;
55037;SDS011;40937;53.594;10.034;2022-12-29T10:11:24;4.82;;;1.92;;
55037;SDS011;40937;53.594;10.034;2022-12-29T10:14:05;7.10;;;1.52;;
55037;SDS011;40937;53.594;10.034;2022-12-29T10:16:42;7.60;;;1.93;;
55037;SDS011;40937;53.594;10.034;2022-12-29T10:19:19;7.68;;;1.85;;
55037;SDS011;40937;53.594;10.034;2022-12-29T10:21:56;5.78;;;1.73;;
55037;SDS011;40937;53.594;10.034;2022-12-29T10:24:33;4.80;;;2.00;;
55037;SDS011;40937;53.594;10.034;2022-12-29T10:27:01;7.20;;;1.55;;
55037;SDS011;40937;53.594;10.034;2022-12-29T10:29:29;5.93;;;1.80;;
55037;SDS011;40937;53.594;10.034;2022-12-29T10:32:00;5.57;;;1.70;;
55037;SDS011;40937;53.594;10.034;2022-12-29T10:34:29;3.63;;;1.45;;
55037;SDS011;40937;53.594;10.034;2022-12-29T10:37:00;4.82;;;1.73;;
55037;SDS011;40937;53.594;10.034;2022-12-29T10:39:30;4.57;;;1.85;;
55037;SDS011;40937;53.594;10.034;2022-12-29T10:42:01;8.90;;;2.38;;
55037;SDS011;40937;53.594;10.034;2022-12-29T10:44:31;8.65;;;2.05;;
55037;SDS011;40937;53.594;10.034;2022-12-29T10:47:02;9.00;;;2.35;;
55037;SDS011;40937;53.594;10.034;2022-12-29T10:49:31;5.60;;;1.77;;
55037;SDS011;40937;53.594;10.034;2022-12-29T10:52:03;5.53;;;1.73;;
55037;SDS011;40937;53.594;10.034;2022-12-29T10:54:32;5.90;;;1.80;;
55037;SDS011;40937;53.594;10.034;2022-12-29T10:57:09;14.30;;;2.35;;
55037;SDS011;40937;53.594;10.034;2022-12-29T10:59:41;8.45;;;1.90;;
55037;SDS011;40937;53.594;10.034;2022-12-29T11:02:15;8.38;;;2.47;;
55037;SDS011;40937;53.594;10.034;2022-12-29T11:04:55;7.78;;;2.08;;
55037;SDS011;40937;53.594;10.034;2022-12-29T11:07:27;3.97;;;1.77;;
55037;SDS011;40937;53.594;10.034;2022-12-29T11:09:55;3.97;;;1.67;;
55037;SDS011;40937;53.594;10.034;2022-12-29T11:16:16;5.65;;;1.77;;
55037;SDS011;40937;53.594;10.034;2022-12-29T11:19:00;6.60;;;2.28;;
55037;SDS011;40937;53.594;10.034;2022-12-29T11:21:35;6.15;;;2.22;;
55037;SDS011;40937;53.594;10.034;2022-12-29T11:24:19;11.43;;;2.42;;
55037;SDS011;40937;53.594;10.034;2022-12-29T11:26:49;6.97;;;2.03;;
55037;SDS011;40937;53.594;10.034;2022-12-29T11:29:21;3.78;;;1.98;;
55037;SDS011;40937;53.594;10.034;2022-12-29T11:31:57;7.82;;;2.13;;
55037;SDS011;40937;53.594;10.034;2022-12-29T11:34:25;7.65;;;2.17;;
55037;SDS011;40937;53.594;10.034;2022-12-29T11:36:58;5.25;;;2.10;;
55037;SDS011;40937;53.594;10.034;2022-12-29T11:39:38;6.57;;;2.20;;
55037;SDS011;40937;53.594;10.034;2022-12-29T11:42:12;4.80;;;1.48;;
55037;SDS011;40937;53.594;10.034;2022-12-29T11:44:42;2.63;;;1.17;;
55037;SDS011;40937;53.594;10.034;2022-12-29T11:47:12;7.38;;;1.95;;
55037;SDS011;40937;53.594;10.034;2022-12-29T11:49:49;4.65;;;1.52;;
55037;SDS011;40937;53.594;10.034;2022-12-29T11:52:16;5.25;;;1.92;;
55037;SDS011;40937;53.594;10.034;2022-12-29T11:54:42;7.75;;;1.98;;
55037;SDS011;40937;53.594;10.034;2022-12-29T11:57:09;5.57;;;1.33;;
55037;SDS011;40937;53.594;10.034;2022-12-29T11:59:42;3.55;;;1.30;;
55037;SDS011;40937;53.594;10.034;2022-12-29T12:05:26;4.75;;;1.40;;
55037;SDS011;40937;53.594;10.034;2022-12-29T12:07:58;3.67;;;1.20;;
55037;SDS011;40937;53.594;10.034;2022-12-29T12:10:28;4.35;;;1.70;;
55037;SDS011;40937;53.594;10.034;2022-12-29T12:12:58;4.78;;;1.70;;
55037;SDS011;40937;53.594;10.034;2022-12-29T12:15:30;2.47;;;1.33;;
55037;SDS011;40937;53.594;10.034;2022-12-29T12:18:05;4.88;;;2.17;;
55037;SDS011;40937;53.594;10.034;2022-12-29T12:20:43;5.07;;;2.00;;
55037;SDS011;40937;53.594;10.034;2022-12-29T12:23:29;4.38;;;1.33;;
55037;SDS011;40937;53.594;10.034;2022-12-29T12:26:00;5.68;;;1.50;;
55037;SDS011;40937;53.594;10.034;2022-12-29T12:28:33;4.20;;;2.03;;
55037;SDS011;40937;53.594;10.034;2022-12-29T12:31:05;9.38;;;2.88;;
55037;SDS011;40937;53.594;10.034;2022-12-29T12:33:38;6.50;;;2.15;;
55037;SDS011;40937;53.594;10.034;2022-12-29T12:36:17;14.38;;;2.30;;
55037;SDS011;40937;53.594;10.034;2022-12-29T12:38:51;6.20;;;1.95;;
55037;SDS011;40937;53.594;10.034;2022-12-29T12:41:22;7.68;;;2.15;;
55037;SDS011;40937;53.594;10.034;2022-12-29T12:43:56;6.93;;;2.25;;
55037;SDS011;40937;53.594;10.034;2022-12-29T12:46:34;6.05;;;1.85;;
55037;SDS011;40937;53.594;10.034;2022-12-29T12:49:23;7.22;;;1.95;;
55037;SDS011;40937;53.594;10.034;2022-12-29T12:52:02;8.40;;;1.98;;
55037;SDS011;40937;53.594;10.034;2022-12-29T12:54:43;6.18;;;2.08;;
55037;SDS011;40937;53.594;10.034;2022-12-29T12:57:22;5.05;;;1.85;;
55037;SDS011;40937;53.594;10.034;2022-12-29T12:59:56;7.38;;;1.92;;
55037;SDS011;40937;53.594;10.034;2022-12-29T13:02:34;8.25;;;2.20;;
55037;SDS011;40937;53.594;10.034;2022-12-29T13:05:09;8.45;;;2.58;;
55037;SDS011;40937;53.594;10.034;2022-12-29T13:07:47;8.55;;;2.08;;
55037;SDS011;40937;53.594;10.034;2022-12-29T13:10:21;11.30;;;1.90;;
55037;SDS011;40937;53.594;10.034;2022-12-29T13:12:59;3.85;;;2.03;;
55037;SDS011;40937;53.594;10.034;2022-12-29T13:15:41;8.52;;;2.45;;
55037;SDS011;40937;53.594;10.034;2022-12-29T13:18:14;6.18;;;2.22;;
55037;SDS011;40937;53.594;10.034;2022-12-29T13:20:46;8.73;;;2.83;;
55037;SDS011;40937;53.594;10.034;2022-12-29T13:23:17;16.42;;;2.13;;
55037;SDS011;40937;53.594;10.034;2022-12-29T13:25:51;8.57;;;2.30;;
55037;SDS011;40937;53.594;10.034;2022-12-29T13:28:24;10.50;;;2.47;;
55037;SDS011;40937;53.594;10.034;2022-12-29T13:30:56;6.78;;;1.98;;
55037;SDS011;40937;53.594;10.034;2022-12-29T13:33:28;4.15;;;2.40;;
55037;SDS011;40937;53.594;10.034;2022-12-29T13:36:02;6.53;;;1.85;;
55037;SDS011;40937;53.594;10.034;2022-12-29T13:38:34;7.22;;;1.98;;
55037;SDS011;40937;53.594;10.034;2022-12-29T13:41:04;4.93;;;1.88;;
55037;SDS011;40937;53.594;10.034;2022-12-29T13:43:33;5.22;;;2.53;;
55037;SDS011;40937;53.594;10.034;2022-12-29T13:46:02;8.27;;;2.30;;
55037;SDS011;40937;53.594;10.034;2022-12-29T13:48:35;6.75;;;2.58;;
55037;SDS011;40937;53.594;10.034;2022-12-29T13:51:03;7.10;;;2.60;;
55037;SDS011;40937;53.594;10.034;2022-12-29T13:53:35;6.82;;;2.13;;
55037;SDS011;40937;53.594;10.034;2022-12-29T13:56:07;7.03;;;2.33;;
55037;SDS011;40937;53.594;10.034;2022-12-29T13:58:37;4.95;;;1.77;;
55037;SDS011;40937;53.594;10.034;2022-12-29T14:01:10;5.85;;;1.73;;
55037;SDS011;40937;53.594;10.034;2022-12-29T14:03:43;8.63;;;3.65;;
55037;SDS011;40937;53.594;10.034;2022-12-29T14:06:22;5.65;;;2.10;;
55037;SDS011;40937;53.594;10.034;2022-12-29T14:08:53;8.23;;;2.05;;
55037;SDS011;40937;53.594;10.034;2022-12-29T14:11:21;5.10;;;1.65;;
55037;SDS011;40937;53.594;10.034;2022-12-29T14:13:51;7.50;;;2.13;;
55037;SDS011;40937;53.594;10.034;2022-12-29T14:16:24;9.65;;;2.08;;
55037;SDS011;40937;53.594;10.034;2022-12-29T14:18:54;5.60;;;1.60;;
55037;SDS011;40937;53.594;10.034;2022-12-29T14:21:24;3.13;;;1.67;;
55037;SDS011;40937;53.594;10.034;2022-12-29T14:24:00;6.75;;;1.60;;
55037;SDS011;40937;53.594;10.034;2022-12-29T14:27:01;3.08;;;1.00;;
55037;SDS011;40937;53.594;10.034;2022-12-29T14:30:08;9.07;;;2.17;;
55037;SDS011;40937;53.594;10.034;2022-12-29T14:33:18;9.88;;;1.40;;
55037;SDS011;40937;53.594;10.034;2022-12-29T14:35:46;4.35;;;1.40;;
55037;SDS011;40937;53.594;10.034;2022-12-29T14:38:27;4.97;;;1.83;;
55037;SDS011;40937;53.594;10.034;2022-12-29T14:43:55;3.88;;;1.58;;
55037;SDS011;40937;53.594;10.034;2022-12-29T14:46:45;4.07;;;1.27;;
55037;SDS011;40937;53.594;10.034;2022-12-29T14:49:15;7.20;;;1.80;;
55037;SDS011;40937;53.594;10.034;2022-12-29T14:51:44;6.53;;;1.90;;
55037;SDS011;40937;53.594;10.034;2022-12-29T15:50:23;8.60;;;2.78;;
55037;SDS011;40937;53.594;10.034;2022-12-29T15:53:03;10.00;;;3.10;;
55037;SDS011;40937;53.594;10.034;2022-12-29T15:55:43;6.07;;;2.45;;
55037;SDS011;40937;53.594;10.034;2022-12-29T15:58:30;7.10;;;2.17;;
55037;SDS011;40937;53.594;10.034;2022-12-29T16:01:18;7.38;;;2.47;;
55037;SDS011;40937;53.594;10.034;2022-12-29T16:03:53;7.75;;;2.60;;
55037;SDS011;40937;53.594;10.034;2022-12-29T16:06:28;11.68;;;3.22;;
55037;SDS011;40937;53.594;10.034;2022-12-29T16:09:04;4.72;;;2.63;;
55037;SDS011;40937;53.594;10.034;2022-12-29T16:11:40;8.15;;;3.38;;
55037;SDS011;40937;53.594;10.034;2022-12-29T16:14:14;8.07;;;3.28;;
55037;SDS011;40937;53.594;10.034;2022-12-29T16:16:43;8.32;;;3.60;;
55037;SDS011;40937;53.594;10.034;2022-12-29T16:19:14;12.05;;;4.47;;